Latest Weather Observations for Melbourne (Olympic Park)

IDV60901

Issued at 6:01 pm EST Wednesday 26 June 2019 (issued every 10 minutes, with the page automatically refreshed every 10 minutes)

About weather observations | Map of Melbourne area stations | Latest observations for Melbourne area | Other Formats
Station Details ID: 086338 Name: MELBOURNE (OLYMPIC PARK) Lat: -37.83 Lon: 144.98 Height: 7.53 m
Data from the previous 72 hours. | See also: Recent months at Melbourne (Olympic Park)
Date/Time
EST
Temp
°C
App
Temp
°C
Dew
Point
°C
Rel
Hum
%
Delta-T
°C
Wind Press
QNH
hPa
Press
MSL
hPa
Rain since
9am
mm
Dir  Spd
km/h
Gust
km/h
Spd
kts
Gust
kts
26/06:00pm 13.4 11.2 6.0 61 3.5 N 7 11 4 6 1032.5 1032.5 0.0
26/05:30pm 14.5 12.3 6.1 57 4.0 NNE 7 9 4 5 1032.4 1032.4 0.0
26/05:00pm 15.3 12.6 5.8 53 4.5 N 9 13 5 7 1032.4 1032.4 0.0
26/04:30pm 16.4 13.7 5.4 48 5.3 N 9 15 5 8 1032.4 1032.4 0.0
26/04:00pm 17.0 13.9 5.6 47 5.5 N 11 20 6 11 1032.5 1032.5 0.0
26/03:30pm 17.2 13.8 5.8 47 5.5 N 13 22 7 12 1032.6 1032.6 0.0
26/03:00pm 17.1 13.8 6.3 49 5.2 NNW 13 24 7 13 1032.7 1032.7 0.0
26/02:30pm 17.5 13.7 5.8 46 5.7 N 15 22 8 12 1032.8 1032.8 0.0
26/02:00pm 17.7 14.4 6.3 47 5.6 N 13 24 7 13 1033.0 1033.0 0.0
26/01:30pm 17.2 13.0 5.5 46 5.6 N 17 26 9 14 1033.4 1033.4 0.0
26/01:00pm 16.9 13.6 6.4 50 5.1 N 13 19 7 10 1033.8 1033.8 0.0
26/12:30pm 16.1 13.5 6.0 51 4.9 NNE 9 15 5 8 1034.3 1034.3 0.0
26/12:00pm 14.7 12.4 5.5 54 4.3 NE 7 13 4 7 1034.8 1034.8 0.0
26/11:30am 13.4 11.0 5.3 58 3.8 NNE 7 11 4 6 1035.3 1035.3 0.0
26/11:00am 11.9 9.5 5.1 63 3.1 NNE 7 13 4 7 1035.7 1035.7 0.0
26/10:30am 10.8 8.0 5.1 68 2.6 NNE 9 15 5 8 1035.8 1035.8 0.0
26/10:00am 9.3 6.0 4.5 72 2.1 NNE 11 15 6 8 1036.0 1036.0 0.0
26/09:30am 8.1 5.1 4.1 76 1.7 NNE 9 13 5 7 1036.2 1036.2 0.0
26/09:00am 6.6 3.6 4.1 84 1.1 NNE 9 13 5 7 1036.2 1036.2 0.2
26/08:30am 5.1 2.0 3.4 89 0.7 NNE 9 11 5 6 1036.1 1036.1 0.2
26/08:00am 4.8 1.6 3.3 90 0.6 NNE 9 11 5 6 1035.8 1035.8 0.2
26/07:30am 4.8 1.6 3.1 89 0.7 NNE 9 13 5 7 1035.5 1035.5 0.2
26/07:00am 5.0 1.8 3.3 89 0.7 NNE 9 13 5 7 1035.4 1035.4 0.2
26/06:30am 5.0 1.8 3.3 89 0.7 N 9 11 5 6 1035.2 1035.2 0.0
26/06:00am 5.0 1.9 3.7 91 0.5 NNE 9 13 5 7 1034.9 1034.9 0.0
26/05:30am 4.7 2.0 3.5 92 0.5 NNE 7 9 4 5 1034.8 1034.8 0.0
26/05:00am 5.2 1.8 3.9 91 0.5 NNE 11 15 6 8 1034.5 1034.5 0.0
26/04:30am 5.3 2.3 4.3 93 0.4 NNE 9 13 5 7 1034.6 1034.6 0.0
26/04:00am 5.0 2.5 3.8 92 0.5 N 6 9 3 5 1034.6 1034.6 0.0
26/03:30am 5.3 2.9 4.1 92 0.5 NNE 6 7 3 4 1034.5 1034.5 0.0
26/03:00am 5.7 3.2 4.5 92 0.5 N 7 9 4 5 1034.5 1034.5 0.0
26/02:30am 5.9 3.4 4.7 92 0.5 NNE 7 11 4 6 1034.5 1034.5 0.0
26/02:00am 6.1 3.6 4.7 91 0.6 NNE 7 11 4 6 1034.3 1034.3 0.0
26/01:30am 6.6 4.2 5.2 91 0.6 NNE 7 11 4 6 1034.2 1034.2 0.0
26/01:00am 6.8 4.0 5.3 90 0.7 NNE 9 13 5 7 1034.2 1034.2 0.0
26/12:30am 7.1 4.4 5.6 90 0.7 NNE 9 11 5 6 1034.2 1034.2 0.0
26/12:00am 7.1 4.9 5.4 89 0.7 N 6 11 3 6 1034.4 1034.4 0.0
 
Date/Time
EST
Temp
°C
App
Temp
°C
Dew
Point
°C
Rel
Hum
%
Delta-T
°C
Wind Press
QNH
hPa
Press
MSL
hPa
Rain since
9am
mm
Dir  Spd
km/h
Gust
km/h
Spd
kts
Gust
kts
25/11:30pm 7.7 5.4 5.8 88 0.9 NNE 7 9 4 5 1034.3 1034.3 0.0
25/11:00pm 8.1 5.9 6.1 87 0.9 NE 7 9 4 5 1034.5 1034.5 0.0
25/10:30pm 8.2 6.0 6.0 86 1.0 NNE 7 7 4 4 1034.5 1034.5 0.0
25/10:00pm 8.9 6.3 6.3 84 1.2 N 9 13 5 7 1034.3 1034.3 0.0
25/09:30pm 9.1 7.0 6.5 84 1.2 N 7 9 4 5 1034.4 1034.4 0.0
25/09:00pm 8.5 7.7 6.3 86 1.0 CALM 0 6 0 3 1034.3 1034.3 0.0
25/08:30pm 9.3 7.8 6.6 83 1.3 NNE 4 9 2 5 1034.2 1034.2 0.0
25/08:00pm 8.8 7.6 6.6 86 1.0 NNE 2 7 1 4 1034.2 1034.2 0.0
25/07:30pm 9.0 8.2 6.4 84 1.2 CALM 0 0 0 0 1034.3 1034.3 0.0
25/07:00pm 9.6 8.8 6.5 81 1.4 CALM 0 0 0 0 1034.0 1034.0 0.0
25/06:30pm 10.2 9.4 6.4 77 1.8 CALM 0 0 0 0 1033.8 1033.8 0.0
25/06:00pm 11.1 9.9 6.5 73 2.1 NNW 2 9 1 5 1033.5 1033.5 0.0
25/05:30pm 12.4 11.5 6.2 66 2.9 CALM 0 0 0 0 1033.2 1033.2 0.0
25/05:00pm 14.7 12.3 5.2 53 4.4 N 7 9 4 5 1033.1 1033.1 0.0
25/04:30pm 15.9 12.8 5.5 50 5.0 N 11 15 6 8 1032.9 1032.9 0.0
25/04:00pm 16.2 12.6 5.2 48 5.2 N 13 19 7 10 1032.7 1032.7 0.0
25/03:30pm 16.4 12.9 5.4 48 5.3 N 13 17 7 9 1032.7 1032.7 0.0
25/03:00pm 16.9 13.3 5.2 46 5.5 NNE 13 19 7 10 1032.6 1032.6 0.0
25/02:30pm 16.9 13.5 5.8 48 5.4 N 13 20 7 11 1032.5 1032.5 0.0
25/02:00pm 15.6 12.4 5.2 50 4.9 NNE 11 28 6 15 1032.8 1032.8 0.0
25/01:30pm 15.5 12.0 5.4 51 4.8 NNE 13 19 7 10 1033.0 1033.0 0.0
25/01:00pm 15.9 13.0 4.9 48 5.1 NE 9 13 5 7 1033.4 1033.4 0.0
25/12:30pm 14.8 11.6 3.3 46 5.2 NE 9 13 5 7 1033.9 1033.9 0.0
25/12:00pm 12.6 9.6 2.2 49 4.5 NE 7 9 4 5 1034.5 1034.5 0.0
25/11:30am 11.5 8.5 2.0 52 4.1 NE 7 11 4 6 1034.8 1034.8 0.0
25/11:00am 10.1 6.6 1.5 55 3.5 NNE 9 11 5 6 1035.0 1035.0 0.0
25/10:30am 8.7 5.7 2.3 64 2.7 NNE 7 11 4 6 1035.1 1035.1 0.0
25/10:00am 7.6 4.2 1.7 66 2.4 NNE 9 13 5 7 1034.9 1034.9 0.0
25/09:30am 6.9 3.5 1.8 70 2.1 NNE 9 11 5 6 1034.8 1034.8 0.0
25/09:00am 5.3 1.5 1.6 77 1.5 NNE 11 13 6 7 1034.8 1034.8 0.0
25/08:30am 3.9 0.3 0.9 81 1.2 NNE 9 13 5 7 1034.6 1034.6 0.0
25/08:00am 3.6 0.6 0.8 82 1.1 NE 6 9 3 5 1034.4 1034.4 0.0
25/07:30am 3.6 0.1 1.0 83 1.0 NNE 9 13 5 7 1034.3 1034.3 0.0
25/07:00am 3.8 0.6 1.0 82 1.1 NE 7 9 4 5 1034.0 1034.0 0.0
25/06:30am 3.8 0.6 1.0 82 1.1 NNE 7 15 4 8 1033.6 1033.6 0.0
25/06:00am 4.0 0.1 1.2 82 1.1 NNE 11 15 6 8 1033.4 1033.4 0.0
25/05:30am 4.1 1.0 1.6 84 1.0 NNE 7 11 4 6 1033.1 1033.1 0.0
25/05:00am 3.9 0.5 1.6 85 0.9 NNE 9 15 5 8 1032.9 1032.9 0.0
25/04:30am 4.1 1.1 1.8 85 0.9 NNE 7 13 4 7 1032.8 1032.8 0.0
25/04:00am 3.9 0.5 1.8 86 0.8 NNE 9 15 5 8 1032.7 1032.7 0.0
25/03:30am 4.1 0.7 2.0 86 0.8 N 9 11 5 6 1033.0 1033.0 0.0
25/03:00am 4.2 0.9 2.4 88 0.7 N 9 15 5 8 1032.9 1032.9 0.0
25/02:30am 4.5 1.3 2.8 89 0.7 N 9 11 5 6 1032.9 1032.9 0.0
25/02:00am 4.9 2.1 3.2 89 0.7 NE 7 11 4 6 1032.8 1032.8 0.0
25/01:30am 5.0 2.4 3.3 89 0.7 NNE 6 9 3 5 1033.2 1033.2 0.0
25/01:00am 5.4 2.3 3.6 88 0.7 NE 9 13 5 7 1033.1 1033.1 0.0
25/12:30am 5.5 2.7 3.3 86 0.9 N 7 13 4 7 1033.5 1033.5 0.0
25/12:00am 5.6 2.8 3.4 86 0.9 N 7 11 4 6 1033.4 1033.4 0.0
 
Date/Time
EST
Temp
°C
App
Temp
°C
Dew
Point
°C
Rel
Hum
%
Delta-T
°C
Wind Press
QNH
hPa
Press
MSL
hPa
Rain since
9am
mm
Dir  Spd
km/h
Gust
km/h
Spd
kts
Gust
kts
24/11:30pm 5.7 3.2 3.7 87 0.8 N 6 9 3 5 1033.4 1033.4 0.0
24/11:00pm 6.0 3.6 4.2 88 0.8 N 6 9 3 5 1033.2 1033.2 0.0
24/10:30pm 6.6 4.3 4.8 88 0.8 NE 6 9 3 5 1033.2 1033.2 0.0
24/10:00pm 7.1 4.3 5.1 87 0.9 NNE 9 11 5 6 1033.4 1033.4 0.0
24/09:30pm 7.4 5.2 5.2 86 1.0 NNE 6 9 3 5 1033.6 1033.6 0.0
24/09:00pm 7.9 5.2 5.5 85 1.1 NE 9 13 5 7 1033.5 1033.5 0.0
24/08:30pm 8.6 5.2 5.9 83 1.2 NNE 13 17 7 9 1033.4 1033.4 0.0
24/08:00pm 7.8 5.9 7.4 97 0.2 NNE 7 15 4 8 1033.2 1033.2 0.0
24/07:30pm 6.9 5.7 6.3 96 0.3 E 2 6 1 3 1033.0 1033.0 0.0
24/07:00pm 7.2 6.4 6.5 95 0.3 CALM 0 0 0 0 1032.9 1032.9 0.0
24/06:30pm 7.8 7.0 6.7 93 0.5 CALM 0 0 0 0 1032.8 1032.8 0.0
24/06:00pm 8.4 7.7 6.9 90 0.7 CALM 0 0 0 0 1032.7 1032.7 0.0
24/05:30pm 9.4 8.7 6.8 84 1.2 CALM 0 0 0 0 1032.5 1032.5 0.0
24/05:00pm 11.0 10.2 6.7 75 2.0 CALM 0 0 0 0 1032.2 1032.2 0.0
24/04:30pm 12.3 10.8 6.8 69 2.6 WSW 4 9 2 5 1032.2 1032.2 0.0
24/04:00pm 12.7 10.7 6.3 65 3.0 SW 6 9 3 5 1031.9 1031.9 0.0
24/03:30pm 13.1 10.9 6.2 63 3.3 SSW 7 11 4 6 1031.6 1031.6 0.0
24/03:00pm 15.8 14.2 4.5 47 5.2 N 2 7 1 4 1031.5 1031.5 0.0
24/02:30pm 14.5 12.0 4.5 51 4.6 ENE 7 13 4 7 1031.4 1031.4 0.0
24/02:00pm 14.2 11.1 3.7 49 4.7 NNE 9 15 5 8 1031.3 1031.3 0.0
24/01:30pm 13.5 10.8 3.6 51 4.5 NNE 7 11 4 6 1031.5 1031.5 0.0
24/01:00pm 12.6 10.1 3.8 55 3.9 N 6 11 3 6 1032.0 1032.0 0.0
24/12:30pm 11.8 9.2 4.3 60 3.4 NNE 7 11 4 6 1032.5 1032.5 0.0
24/12:00pm 9.6 6.6 4.0 68 2.4 NNE 9 13 5 7 1033.0 1033.0 0.0
24/11:30am 8.6 5.9 3.6 71 2.2 NE 7 11 4 6 1033.3 1033.3 0.0
24/11:00am 7.5 5.6 5.1 85 1.0 NNE 4 9 2 5 1033.8 1033.8 0.0
24/10:30am 5.5 2.6 4.6 94 0.4 NNE 9 11 5 6 1034.1 1034.1 0.0
24/10:00am 4.5 1.1 3.8 95 0.3 N 11 15 6 8 1034.4 1034.4 0.0
24/09:30am 4.5 1.5 3.9 96 0.3 NE 9 17 5 9 1034.2 1034.2 0.0
24/09:00am 4.5 0.7 3.9 96 0.2 NNE 13 17 7 9 1034.0 1034.0 0.0
24/08:30am 4.6 1.1 3.7 94 0.4 NNE 11 15 6 8 1034.1 1034.1 0.0
24/08:00am 5.2 2.2 4.3 94 0.4 N 9 15 5 8 1034.1 1034.1 0.0
24/07:30am 5.3 1.6 4.3 93 0.4 N 13 17 7 9 1033.9 1033.9 0.0
24/07:00am 5.6 2.7 4.6 93 0.4 NNE 9 15 5 8 1033.7 1033.7 0.0
24/06:30am 5.8 3.0 5.2 96 0.3 NE 9 13 5 7 1033.5 1033.5 0.0
24/06:08am 5.4 3.0 5.3 99 0.0 NNE 7 11 4 6 1033.5 1033.5 0.0
24/06:00am 4.8 2.4 4.5 98 0.1 NNE 6 9 3 5 1033.6 1033.6 0.0
24/05:40am 4.4 3.1 4.0 97 0.2 CALM 0 4 0 2 1033.4 1033.4 0.0
24/05:30am 4.8 3.6 4.4 97 0.2 CALM 0 0 0 0 1033.2 1033.2 0.0
24/05:00am 5.3 4.2 5.0 98 0.1 CALM 0 0 0 0 1033.3 1033.3 0.0
24/04:46am 5.3 4.2 5.0 98 0.1 CALM 0 0 0 0 1033.4 1033.4 0.0
24/04:30am 4.9 3.7 4.5 97 0.2 CALM 0 0 0 0 1033.4 1033.4 0.0
24/04:10am 5.0 3.8 4.4 96 0.3 CALM 0 4 0 2 1033.3 1033.3 0.0
24/04:00am 5.3 3.7 4.7 96 0.3 NE 2 9 1 5 1033.2 1033.2 0.0
24/03:30am 5.5 3.0 4.9 96 0.3 E 7 9 4 5 1032.9 1032.9 0.0
24/03:28am 5.6 3.3 5.0 96 0.3 E 6 9 3 5 1033.0 1033.0 0.0
24/03:00am 5.7 3.4 4.8 94 0.4 E 6 9 3 5 1033.2 1033.2 0.0
24/02:42am 5.8 4.6 4.4 91 0.6 CALM 0 6 0 3 1033.2 1033.2 0.0
24/02:30am 6.8 4.4 5.3 90 0.7 NNE 7 9 4 5 1033.2 1033.2 0.0
24/02:00am 7.2 4.8 5.2 87 0.9 NNE 7 11 4 6 1033.0 1033.0 0.0
24/01:30am 7.3 5.0 5.9 91 0.6 NE 7 9 4 5 1032.7 1032.7 0.0
24/01:00am 7.2 6.0 6.5 95 0.3 N 2 7 1 4 1032.8 1032.8 0.0
24/12:54am 7.1 5.9 6.4 95 0.3 N 2 6 1 3 1032.8 1032.8 0.0
24/12:38am 7.1 6.3 6.4 95 0.3 CALM 0 0 0 0 1032.7 1032.7 0.0
24/12:30am 7.2 6.0 6.5 95 0.3 E 2 7 1 4 1032.7 1032.7 0.0
24/12:00am 7.1 5.5 6.2 94 0.4 NE 4 7 2 4 1032.8 1032.8 0.0
 
Date/Time
EST
Temp
°C
App
Temp
°C
Dew
Point
°C
Rel
Hum
%
Delta-T
°C
Wind Press
QNH
hPa
Press
MSL
hPa
Rain since
9am
mm
Dir  Spd
km/h
Gust
km/h
Spd
kts
Gust
kts
23/11:30pm 7.0 4.8 6.3 95 0.3 NE 7 11 4 6 1032.6 1032.6 0.0
23/11:00pm 7.1 4.6 6.4 95 0.3 NE 9 11 5 6 1032.5 1032.5 0.0
23/10:30pm 7.4 6.4 7.3 99 0.0 E 2 6 1 3 1032.7 1032.7 0.0
23/10:21pm 7.4 6.0 7.3 99 0.0 ENE 4 7 2 4 1032.7 1032.7 0.0
23/10:00pm 6.8 6.0 6.7 99 0.0 CALM 0 0 0 0 1032.7 1032.7 0.0
23/09:34pm 7.1 6.4 7.0 99 0.0 CALM 0 0 0 0 1032.8 1032.8 0.0
23/09:33pm 7.1 6.4 7.0 99 0.0 CALM 0 0 0 0 1032.8 1032.8 0.0
23/09:30pm 7.1 6.4 7.0 99 0.0 CALM 0 0 0 0 1032.8 1032.8 0.0
23/09:00pm 7.0 6.3 6.9 99 0.0 CALM 0 0 0 0 1032.7 1032.7 0.0
23/08:50pm 7.0 6.3 6.9 99 0.0 CALM 0 0 0 0 1032.6 1032.6 0.0
23/08:47pm 7.0 6.3 6.9 99 0.0 CALM 0 0 0 0 1032.6 1032.6 0.0
23/08:30pm 6.7 5.9 6.4 98 0.1 CALM 0 0 0 0 1032.4 1032.4 0.0
23/08:00pm 6.4 5.5 6.0 97 0.2 CALM 0 0 0 0 1032.3 1032.3 0.0
23/07:30pm 6.2 5.2 5.5 95 0.3 CALM 0 6 0 3 1032.0 1032.0 0.0
23/07:19pm 6.2 5.1 5.2 93 0.4 CALM 0 0 0 0 1031.9 1031.9 0.0
23/07:00pm 6.8 4.5 5.7 93 0.5 NNE 7 11 4 6 1031.6 1031.6 0.0
23/06:30pm 7.1 4.9 6.0 93 0.5 NNE 7 11 4 6 1031.6 1031.6 0.0

Latest Capital City Observations: Canberra | Sydney | Melbourne | Brisbane | Adelaide | Perth | Hobart | Darwin

Other formats

Comma delimited format used in spreadsheet applications
http://www.bom.gov.au/fwo/IDV60901/IDV60901.95936.axf

JavaScript Object Notation format (JSON) in row-major order
http://www.bom.gov.au/fwo/IDV60901/IDV60901.95936.json

Data quality

Most of these data are generated automatically and are frequently updated. Quality checks on data are not normally performed. It is possible for incorrect values to appear. Refer to information at About Latest Weather Observations and please check the disclaimer before using these data.